sensor_id;sensor_type;location;lat;lon;timestamp;temperature;humidity
19870;DHT22;10097;50.862;4.696;2023-12-20T00:01:37;7.20;99.90
19870;DHT22;10097;50.862;4.696;2023-12-20T00:04:06;7.20;99.90
19870;DHT22;10097;50.862;4.696;2023-12-20T00:06:32;7.20;99.90
19870;DHT22;10097;50.862;4.696;2023-12-20T00:08:57;7.20;99.90
19870;DHT22;10097;50.862;4.696;2023-12-20T00:11:23;7.20;99.90
19870;DHT22;10097;50.862;4.696;2023-12-20T00:13:49;7.20;99.90
19870;DHT22;10097;50.862;4.696;2023-12-20T00:16:15;7.10;99.90
19870;DHT22;10097;50.862;4.696;2023-12-20T00:18:40;6.90;99.90
19870;DHT22;10097;50.862;4.696;2023-12-20T00:21:08;6.90;99.90
19870;DHT22;10097;50.862;4.696;2023-12-20T00:23:37;7.00;99.90
19870;DHT22;10097;50.862;4.696;2023-12-20T00:26:02;6.90;99.90
19870;DHT22;10097;50.862;4.696;2023-12-20T00:28:28;6.90;99.90
19870;DHT22;10097;50.862;4.696;2023-12-20T00:30:54;6.90;99.90
19870;DHT22;10097;50.862;4.696;2023-12-20T00:33:19;6.90;99.90
19870;DHT22;10097;50.862;4.696;2023-12-20T00:35:45;7.00;99.90
19870;DHT22;10097;50.862;4.696;2023-12-20T00:38:11;7.00;99.90
19870;DHT22;10097;50.862;4.696;2023-12-20T00:40:37;6.90;99.90
19870;DHT22;10097;50.862;4.696;2023-12-20T00:43:03;6.90;99.90
19870;DHT22;10097;50.862;4.696;2023-12-20T00:45:29;6.90;99.90
19870;DHT22;10097;50.862;4.696;2023-12-20T00:47:54;6.90;99.90
19870;DHT22;10097;50.862;4.696;2023-12-20T00:50:20;6.90;99.90
19870;DHT22;10097;50.862;4.696;2023-12-20T00:52:47;6.80;99.90
19870;DHT22;10097;50.862;4.696;2023-12-20T00:55:13;6.90;99.90
19870;DHT22;10097;50.862;4.696;2023-12-20T00:57:39;6.90;99.90
19870;DHT22;10097;50.862;4.696;2023-12-20T01:00:05;6.90;99.90
19870;DHT22;10097;50.862;4.696;2023-12-20T01:02:31;6.90;99.90
19870;DHT22;10097;50.862;4.696;2023-12-20T01:04:57;6.80;99.90
19870;DHT22;10097;50.862;4.696;2023-12-20T01:07:22;6.70;99.90
19870;DHT22;10097;50.862;4.696;2023-12-20T01:09:51;6.70;99.90
19870;DHT22;10097;50.862;4.696;2023-12-20T01:12:16;6.70;99.90
19870;DHT22;10097;50.862;4.696;2023-12-20T01:14:42;6.70;99.90
19870;DHT22;10097;50.862;4.696;2023-12-20T01:17:08;6.70;99.90
19870;DHT22;10097;50.862;4.696;2023-12-20T01:19:36;6.70;99.90
19870;DHT22;10097;50.862;4.696;2023-12-20T01:22:01;6.70;99.90
19870;DHT22;10097;50.862;4.696;2023-12-20T01:24:27;6.70;99.90
19870;DHT22;10097;50.862;4.696;2023-12-20T01:26:53;6.70;99.90
19870;DHT22;10097;50.862;4.696;2023-12-20T01:29:18;6.70;99.90
19870;DHT22;10097;50.862;4.696;2023-12-20T01:31:44;6.60;99.90
19870;DHT22;10097;50.862;4.696;2023-12-20T01:34:10;6.60;99.90
19870;DHT22;10097;50.862;4.696;2023-12-20T01:36:36;6.70;99.90
19870;DHT22;10097;50.862;4.696;2023-12-20T01:39:01;6.60;99.90
19870;DHT22;10097;50.862;4.696;2023-12-20T01:41:27;6.60;99.90
19870;DHT22;10097;50.862;4.696;2023-12-20T01:43:53;6.50;99.90
19870;DHT22;10097;50.862;4.696;2023-12-20T01:46:20;6.50;99.90
19870;DHT22;10097;50.862;4.696;2023-12-20T01:48:47;6.50;99.90
19870;DHT22;10097;50.862;4.696;2023-12-20T01:51:15;6.40;99.90
19870;DHT22;10097;50.862;4.696;2023-12-20T01:53:41;6.40;99.90
19870;DHT22;10097;50.862;4.696;2023-12-20T01:56:08;6.50;99.90
19870;DHT22;10097;50.862;4.696;2023-12-20T01:58:34;6.40;99.90
19870;DHT22;10097;50.862;4.696;2023-12-20T02:01:00;6.40;99.90
19870;DHT22;10097;50.862;4.696;2023-12-20T02:03:26;6.30;99.90
19870;DHT22;10097;50.862;4.696;2023-12-20T02:05:51;6.30;99.90
19870;DHT22;10097;50.862;4.696;2023-12-20T02:08:18;6.30;99.90
19870;DHT22;10097;50.862;4.696;2023-12-20T02:10:44;6.30;99.90
19870;DHT22;10097;50.862;4.696;2023-12-20T02:13:10;6.30;99.90
19870;DHT22;10097;50.862;4.696;2023-12-20T02:15:35;6.40;99.90
19870;DHT22;10097;50.862;4.696;2023-12-20T02:18:04;6.40;99.90
19870;DHT22;10097;50.862;4.696;2023-12-20T02:20:31;6.40;99.90
19870;DHT22;10097;50.862;4.696;2023-12-20T02:22:56;6.40;99.90
19870;DHT22;10097;50.862;4.696;2023-12-20T02:25:22;6.30;99.90
19870;DHT22;10097;50.862;4.696;2023-12-20T02:27:48;6.40;99.90
19870;DHT22;10097;50.862;4.696;2023-12-20T02:30:15;6.30;99.90
19870;DHT22;10097;50.862;4.696;2023-12-20T02:32:40;6.40;99.90
19870;DHT22;10097;50.862;4.696;2023-12-20T02:35:06;6.30;99.90
19870;DHT22;10097;50.862;4.696;2023-12-20T02:37:33;6.30;99.90
19870;DHT22;10097;50.862;4.696;2023-12-20T02:39:58;6.30;99.90
19870;DHT22;10097;50.862;4.696;2023-12-20T02:42:24;6.40;99.90
19870;DHT22;10097;50.862;4.696;2023-12-20T02:44:50;6.40;99.90
19870;DHT22;10097;50.862;4.696;2023-12-20T02:47:15;6.50;99.90
19870;DHT22;10097;50.862;4.696;2023-12-20T02:49:41;6.60;99.90
19870;DHT22;10097;50.862;4.696;2023-12-20T02:52:09;6.70;99.90
19870;DHT22;10097;50.862;4.696;2023-12-20T02:54:35;6.80;99.90
19870;DHT22;10097;50.862;4.696;2023-12-20T02:57:00;6.80;99.90
19870;DHT22;10097;50.862;4.696;2023-12-20T02:59:26;6.90;99.90
19870;DHT22;10097;50.862;4.696;2023-12-20T03:01:52;6.80;99.90
19870;DHT22;10097;50.862;4.696;2023-12-20T03:04:18;6.80;99.90
19870;DHT22;10097;50.862;4.696;2023-12-20T03:06:43;6.80;99.90
19870;DHT22;10097;50.862;4.696;2023-12-20T03:09:09;6.80;99.90
19870;DHT22;10097;50.862;4.696;2023-12-20T03:11:34;6.70;99.90
19870;DHT22;10097;50.862;4.696;2023-12-20T03:14:00;6.70;99.90
19870;DHT22;10097;50.862;4.696;2023-12-20T03:16:26;6.70;99.90
19870;DHT22;10097;50.862;4.696;2023-12-20T03:18:51;6.80;99.90
19870;DHT22;10097;50.862;4.696;2023-12-20T03:21:17;6.70;99.90
19870;DHT22;10097;50.862;4.696;2023-12-20T03:23:43;6.70;99.90
19870;DHT22;10097;50.862;4.696;2023-12-20T03:26:09;6.60;99.90
19870;DHT22;10097;50.862;4.696;2023-12-20T03:28:36;6.60;99.90
19870;DHT22;10097;50.862;4.696;2023-12-20T03:31:02;6.60;99.90
19870;DHT22;10097;50.862;4.696;2023-12-20T03:33:28;6.60;99.90
19870;DHT22;10097;50.862;4.696;2023-12-20T03:35:54;6.60;99.90
19870;DHT22;10097;50.862;4.696;2023-12-20T03:38:21;6.70;99.90
19870;DHT22;10097;50.862;4.696;2023-12-20T03:40:46;6.70;99.90
19870;DHT22;10097;50.862;4.696;2023-12-20T03:43:12;6.60;99.90
19870;DHT22;10097;50.862;4.696;2023-12-20T03:45:38;6.60;99.90
19870;DHT22;10097;50.862;4.696;2023-12-20T03:48:04;6.60;99.90
19870;DHT22;10097;50.862;4.696;2023-12-20T03:50:30;6.60;99.90
19870;DHT22;10097;50.862;4.696;2023-12-20T03:52:56;6.70;99.90
19870;DHT22;10097;50.862;4.696;2023-12-20T03:55:21;6.60;99.90
19870;DHT22;10097;50.862;4.696;2023-12-20T03:57:47;6.60;99.90
19870;DHT22;10097;50.862;4.696;2023-12-20T04:00:13;6.50;99.90
19870;DHT22;10097;50.862;4.696;2023-12-20T04:02:40;6.50;99.90
19870;DHT22;10097;50.862;4.696;2023-12-20T04:05:06;6.60;99.90
19870;DHT22;10097;50.862;4.696;2023-12-20T04:07:32;6.50;99.90
19870;DHT22;10097;50.862;4.696;2023-12-20T04:09:58;6.60;99.90
19870;DHT22;10097;50.862;4.696;2023-12-20T04:12:24;6.60;99.90
19870;DHT22;10097;50.862;4.696;2023-12-20T04:14:50;6.70;99.90
19870;DHT22;10097;50.862;4.696;2023-12-20T04:17:16;6.70;99.90
19870;DHT22;10097;50.862;4.696;2023-12-20T04:19:42;6.80;99.90
19870;DHT22;10097;50.862;4.696;2023-12-20T04:22:08;6.70;99.90
19870;DHT22;10097;50.862;4.696;2023-12-20T04:24:34;6.70;99.90
19870;DHT22;10097;50.862;4.696;2023-12-20T04:27:00;6.70;99.90
19870;DHT22;10097;50.862;4.696;2023-12-20T04:29:27;6.70;99.90
19870;DHT22;10097;50.862;4.696;2023-12-20T04:31:53;6.60;99.90
19870;DHT22;10097;50.862;4.696;2023-12-20T04:34:24;6.70;99.90
19870;DHT22;10097;50.862;4.696;2023-12-20T04:36:50;6.60;99.90
19870;DHT22;10097;50.862;4.696;2023-12-20T04:39:16;6.60;99.90
19870;DHT22;10097;50.862;4.696;2023-12-20T04:41:45;6.50;99.90
19870;DHT22;10097;50.862;4.696;2023-12-20T04:44:15;6.50;99.90
19870;DHT22;10097;50.862;4.696;2023-12-20T04:46:41;6.50;99.90
19870;DHT22;10097;50.862;4.696;2023-12-20T04:49:07;6.50;99.90
19870;DHT22;10097;50.862;4.696;2023-12-20T04:51:33;6.50;99.90
19870;DHT22;10097;50.862;4.696;2023-12-20T04:54:00;6.60;99.90
19870;DHT22;10097;50.862;4.696;2023-12-20T04:56:31;6.60;99.90
19870;DHT22;10097;50.862;4.696;2023-12-20T04:58:59;6.50;99.90
19870;DHT22;10097;50.862;4.696;2023-12-20T05:01:27;6.50;99.90
19870;DHT22;10097;50.862;4.696;2023-12-20T05:03:55;6.50;99.90
19870;DHT22;10097;50.862;4.696;2023-12-20T05:06:21;6.40;99.90
19870;DHT22;10097;50.862;4.696;2023-12-20T05:08:47;6.40;99.90
19870;DHT22;10097;50.862;4.696;2023-12-20T05:11:15;6.50;99.90
19870;DHT22;10097;50.862;4.696;2023-12-20T05:13:41;6.40;99.90
19870;DHT22;10097;50.862;4.696;2023-12-20T05:16:07;6.40;99.90
19870;DHT22;10097;50.862;4.696;2023-12-20T05:18:34;6.30;99.90
19870;DHT22;10097;50.862;4.696;2023-12-20T05:21:02;6.30;99.90
19870;DHT22;10097;50.862;4.696;2023-12-20T05:23:28;6.30;99.90
19870;DHT22;10097;50.862;4.696;2023-12-20T05:25:54;6.30;99.90
19870;DHT22;10097;50.862;4.696;2023-12-20T05:28:19;6.40;99.90
19870;DHT22;10097;50.862;4.696;2023-12-20T05:30:45;6.40;99.90
19870;DHT22;10097;50.862;4.696;2023-12-20T05:33:13;6.40;99.90
19870;DHT22;10097;50.862;4.696;2023-12-20T05:35:38;6.30;99.90
19870;DHT22;10097;50.862;4.696;2023-12-20T05:38:04;6.30;99.90
19870;DHT22;10097;50.862;4.696;2023-12-20T05:40:33;6.20;99.90
19870;DHT22;10097;50.862;4.696;2023-12-20T05:42:58;6.10;99.90
19870;DHT22;10097;50.862;4.696;2023-12-20T05:45:24;6.10;99.90
19870;DHT22;10097;50.862;4.696;2023-12-20T05:47:50;6.10;99.90
19870;DHT22;10097;50.862;4.696;2023-12-20T05:50:16;6.10;99.90
19870;DHT22;10097;50.862;4.696;2023-12-20T05:52:41;6.20;99.90
19870;DHT22;10097;50.862;4.696;2023-12-20T05:55:07;6.20;99.90
19870;DHT22;10097;50.862;4.696;2023-12-20T05:57:33;6.20;99.90
19870;DHT22;10097;50.862;4.696;2023-12-20T06:03:25;6.20;99.90
19870;DHT22;10097;50.862;4.696;2023-12-20T06:05:50;6.30;99.90
19870;DHT22;10097;50.862;4.696;2023-12-20T06:08:16;6.30;99.90
19870;DHT22;10097;50.862;4.696;2023-12-20T06:10:42;6.30;99.90
19870;DHT22;10097;50.862;4.696;2023-12-20T06:13:09;6.30;99.90
19870;DHT22;10097;50.862;4.696;2023-12-20T06:15:35;6.40;99.90
19870;DHT22;10097;50.862;4.696;2023-12-20T06:18:01;6.30;99.90
19870;DHT22;10097;50.862;4.696;2023-12-20T06:20:27;6.30;99.90
19870;DHT22;10097;50.862;4.696;2023-12-20T06:22:55;6.40;99.90
19870;DHT22;10097;50.862;4.696;2023-12-20T06:25:20;6.40;99.90
19870;DHT22;10097;50.862;4.696;2023-12-20T06:27:46;6.40;99.90
19870;DHT22;10097;50.862;4.696;2023-12-20T06:30:12;6.40;99.90
19870;DHT22;10097;50.862;4.696;2023-12-20T06:32:38;6.30;99.90
19870;DHT22;10097;50.862;4.696;2023-12-20T06:35:08;6.40;99.90
19870;DHT22;10097;50.862;4.696;2023-12-20T06:37:36;6.50;99.90
19870;DHT22;10097;50.862;4.696;2023-12-20T06:40:02;6.50;99.90
19870;DHT22;10097;50.862;4.696;2023-12-20T06:42:28;6.50;99.90
19870;DHT22;10097;50.862;4.696;2023-12-20T06:44:53;6.50;99.90
19870;DHT22;10097;50.862;4.696;2023-12-20T06:47:19;6.40;99.90
19870;DHT22;10097;50.862;4.696;2023-12-20T06:49:56;6.50;99.90
19870;DHT22;10097;50.862;4.696;2023-12-20T06:52:27;6.40;99.90
19870;DHT22;10097;50.862;4.696;2023-12-20T06:54:55;6.40;99.90
19870;DHT22;10097;50.862;4.696;2023-12-20T06:57:23;6.30;99.90
19870;DHT22;10097;50.862;4.696;2023-12-20T06:59:52;6.20;99.90
19870;DHT22;10097;50.862;4.696;2023-12-20T07:02:18;6.20;99.90
19870;DHT22;10097;50.862;4.696;2023-12-20T07:04:57;6.20;99.90
19870;DHT22;10097;50.862;4.696;2023-12-20T07:07:43;6.20;99.90
19870;DHT22;10097;50.862;4.696;2023-12-20T07:10:11;6.20;99.90
19870;DHT22;10097;50.862;4.696;2023-12-20T07:12:36;6.10;99.90
19870;DHT22;10097;50.862;4.696;2023-12-20T07:15:02;6.20;99.90
19870;DHT22;10097;50.862;4.696;2023-12-20T07:17:34;6.20;99.90
19870;DHT22;10097;50.862;4.696;2023-12-20T07:20:02;6.20;99.90
19870;DHT22;10097;50.862;4.696;2023-12-20T07:22:31;6.10;99.90
19870;DHT22;10097;50.862;4.696;2023-12-20T07:24:58;6.00;99.90
19870;DHT22;10097;50.862;4.696;2023-12-20T07:27:24;6.00;99.90
19870;DHT22;10097;50.862;4.696;2023-12-20T07:29:57;6.00;99.90
19870;DHT22;10097;50.862;4.696;2023-12-20T07:32:26;6.00;99.90
19870;DHT22;10097;50.862;4.696;2023-12-20T07:34:52;6.10;99.90
19870;DHT22;10097;50.862;4.696;2023-12-20T07:37:19;6.10;99.90
19870;DHT22;10097;50.862;4.696;2023-12-20T07:39:47;6.00;99.90
19870;DHT22;10097;50.862;4.696;2023-12-20T07:42:20;6.00;99.90
19870;DHT22;10097;50.862;4.696;2023-12-20T07:44:50;6.00;99.90
19870;DHT22;10097;50.862;4.696;2023-12-20T07:47:15;6.00;99.90
19870;DHT22;10097;50.862;4.696;2023-12-20T07:49:48;6.00;99.90
19870;DHT22;10097;50.862;4.696;2023-12-20T07:52:14;6.00;99.90
19870;DHT22;10097;50.862;4.696;2023-12-20T07:54:40;6.00;99.90
19870;DHT22;10097;50.862;4.696;2023-12-20T07:57:05;6.00;99.90
19870;DHT22;10097;50.862;4.696;2023-12-20T07:59:49;6.00;99.90
19870;DHT22;10097;50.862;4.696;2023-12-20T08:02:16;6.10;99.90
19870;DHT22;10097;50.862;4.696;2023-12-20T08:04:44;6.00;99.90
19870;DHT22;10097;50.862;4.696;2023-12-20T08:07:12;5.90;99.90
19870;DHT22;10097;50.862;4.696;2023-12-20T08:09:40;5.90;99.90
19870;DHT22;10097;50.862;4.696;2023-12-20T08:12:09;5.90;99.90
19870;DHT22;10097;50.862;4.696;2023-12-20T08:14:37;5.90;99.90
19870;DHT22;10097;50.862;4.696;2023-12-20T08:17:07;5.90;99.90
19870;DHT22;10097;50.862;4.696;2023-12-20T08:19:43;6.00;99.90
19870;DHT22;10097;50.862;4.696;2023-12-20T08:22:14;6.10;99.90
19870;DHT22;10097;50.862;4.696;2023-12-20T08:24:49;6.10;99.90
19870;DHT22;10097;50.862;4.696;2023-12-20T08:27:17;6.00;99.90
19870;DHT22;10097;50.862;4.696;2023-12-20T08:29:55;6.00;99.90
19870;DHT22;10097;50.862;4.696;2023-12-20T08:32:32;6.00;99.90
19870;DHT22;10097;50.862;4.696;2023-12-20T08:35:03;6.00;99.90
19870;DHT22;10097;50.862;4.696;2023-12-20T08:37:29;6.10;99.90
19870;DHT22;10097;50.862;4.696;2023-12-20T08:39:58;6.10;99.90
19870;DHT22;10097;50.862;4.696;2023-12-20T08:42:24;6.20;99.90
19870;DHT22;10097;50.862;4.696;2023-12-20T08:45:02;6.30;99.90
19870;DHT22;10097;50.862;4.696;2023-12-20T08:47:39;6.40;99.90
19870;DHT22;10097;50.862;4.696;2023-12-20T08:50:10;6.50;99.90
19870;DHT22;10097;50.862;4.696;2023-12-20T08:52:41;6.60;99.90
19870;DHT22;10097;50.862;4.696;2023-12-20T08:55:15;6.70;99.90
19870;DHT22;10097;50.862;4.696;2023-12-20T08:57:48;6.70;99.90
19870;DHT22;10097;50.862;4.696;2023-12-20T09:00:15;6.70;99.90
19870;DHT22;10097;50.862;4.696;2023-12-20T09:02:43;6.90;99.90
19870;DHT22;10097;50.862;4.696;2023-12-20T09:05:14;6.90;99.90
19870;DHT22;10097;50.862;4.696;2023-12-20T09:07:39;6.90;99.90
19870;DHT22;10097;50.862;4.696;2023-12-20T09:10:11;6.90;99.90
19870;DHT22;10097;50.862;4.696;2023-12-20T09:12:37;6.90;99.90
19870;DHT22;10097;50.862;4.696;2023-12-20T09:15:06;6.80;99.90
19870;DHT22;10097;50.862;4.696;2023-12-20T09:17:37;6.80;99.90
19870;DHT22;10097;50.862;4.696;2023-12-20T09:20:03;6.90;99.90
19870;DHT22;10097;50.862;4.696;2023-12-20T09:22:41;6.90;99.90
19870;DHT22;10097;50.862;4.696;2023-12-20T09:25:10;6.90;99.90
19870;DHT22;10097;50.862;4.696;2023-12-20T09:27:39;6.90;99.90
19870;DHT22;10097;50.862;4.696;2023-12-20T09:30:07;7.00;99.90
19870;DHT22;10097;50.862;4.696;2023-12-20T09:32:35;7.00;99.90
19870;DHT22;10097;50.862;4.696;2023-12-20T09:35:09;6.90;99.90
19870;DHT22;10097;50.862;4.696;2023-12-20T09:37:37;7.00;99.90
19870;DHT22;10097;50.862;4.696;2023-12-20T09:40:18;7.00;99.90
19870;DHT22;10097;50.862;4.696;2023-12-20T09:42:58;7.10;99.90
19870;DHT22;10097;50.862;4.696;2023-12-20T09:45:35;7.10;99.90
19870;DHT22;10097;50.862;4.696;2023-12-20T09:48:04;7.00;99.90
19870;DHT22;10097;50.862;4.696;2023-12-20T09:50:41;7.10;99.90
19870;DHT22;10097;50.862;4.696;2023-12-20T09:53:33;7.10;99.90
19870;DHT22;10097;50.862;4.696;2023-12-20T09:56:06;7.20;99.90
19870;DHT22;10097;50.862;4.696;2023-12-20T09:58:50;7.20;99.90
19870;DHT22;10097;50.862;4.696;2023-12-20T10:01:16;7.30;99.90
19870;DHT22;10097;50.862;4.696;2023-12-20T10:03:47;7.40;99.90
19870;DHT22;10097;50.862;4.696;2023-12-20T10:06:21;7.40;99.90
19870;DHT22;10097;50.862;4.696;2023-12-20T10:08:49;7.50;99.90
19870;DHT22;10097;50.862;4.696;2023-12-20T10:11:17;7.50;99.90
19870;DHT22;10097;50.862;4.696;2023-12-20T10:13:58;7.60;99.90
19870;DHT22;10097;50.862;4.696;2023-12-20T10:16:25;7.60;99.90
19870;DHT22;10097;50.862;4.696;2023-12-20T10:18:55;7.80;99.90
19870;DHT22;10097;50.862;4.696;2023-12-20T10:21:21;7.80;99.90
19870;DHT22;10097;50.862;4.696;2023-12-20T10:23:48;7.80;99.90
19870;DHT22;10097;50.862;4.696;2023-12-20T10:26:23;7.80;99.90
19870;DHT22;10097;50.862;4.696;2023-12-20T10:28:59;7.90;99.90
19870;DHT22;10097;50.862;4.696;2023-12-20T10:31:33;8.00;99.90
19870;DHT22;10097;50.862;4.696;2023-12-20T10:34:02;8.00;99.90
19870;DHT22;10097;50.862;4.696;2023-12-20T10:36:39;8.10;99.90
19870;DHT22;10097;50.862;4.696;2023-12-20T10:39:08;8.20;99.90
19870;DHT22;10097;50.862;4.696;2023-12-20T10:41:38;8.20;99.90
19870;DHT22;10097;50.862;4.696;2023-12-20T10:44:07;8.30;99.90
19870;DHT22;10097;50.862;4.696;2023-12-20T10:46:37;8.30;99.90
19870;DHT22;10097;50.862;4.696;2023-12-20T10:49:07;8.30;99.90
19870;DHT22;10097;50.862;4.696;2023-12-20T10:51:37;8.30;99.90
19870;DHT22;10097;50.862;4.696;2023-12-20T10:54:06;8.30;99.90
19870;DHT22;10097;50.862;4.696;2023-12-20T10:56:42;8.40;99.90
19870;DHT22;10097;50.862;4.696;2023-12-20T10:59:11;8.50;99.90
19870;DHT22;10097;50.862;4.696;2023-12-20T11:01:40;8.50;99.90
19870;DHT22;10097;50.862;4.696;2023-12-20T11:04:44;8.60;99.90
19870;DHT22;10097;50.862;4.696;2023-12-20T11:07:23;8.60;99.90
19870;DHT22;10097;50.862;4.696;2023-12-20T11:13:08;8.80;99.90
19870;DHT22;10097;50.862;4.696;2023-12-20T11:15:39;8.70;99.90
19870;DHT22;10097;50.862;4.696;2023-12-20T11:18:05;8.80;99.90
19870;DHT22;10097;50.862;4.696;2023-12-20T11:20:38;8.70;99.90
19870;DHT22;10097;50.862;4.696;2023-12-20T11:23:05;8.80;99.90
19870;DHT22;10097;50.862;4.696;2023-12-20T11:25:52;8.90;99.90
19870;DHT22;10097;50.862;4.696;2023-12-20T11:28:23;8.90;99.90
19870;DHT22;10097;50.862;4.696;2023-12-20T11:31:00;8.80;99.90
19870;DHT22;10097;50.862;4.696;2023-12-20T11:33:30;8.80;99.90
19870;DHT22;10097;50.862;4.696;2023-12-20T11:35:56;8.80;99.90
19870;DHT22;10097;50.862;4.696;2023-12-20T11:38:22;8.80;99.90
19870;DHT22;10097;50.862;4.696;2023-12-20T11:40:49;8.70;99.90
19870;DHT22;10097;50.862;4.696;2023-12-20T11:43:35;8.70;99.90
19870;DHT22;10097;50.862;4.696;2023-12-20T11:46:11;8.50;99.90
19870;DHT22;10097;50.862;4.696;2023-12-20T11:48:39;8.50;99.90
19870;DHT22;10097;50.862;4.696;2023-12-20T11:51:14;8.40;99.90
19870;DHT22;10097;50.862;4.696;2023-12-20T11:53:42;8.50;99.90
19870;DHT22;10097;50.862;4.696;2023-12-20T11:56:10;8.50;99.90
19870;DHT22;10097;50.862;4.696;2023-12-20T11:58:39;8.40;99.90
19870;DHT22;10097;50.862;4.696;2023-12-20T12:01:10;8.40;99.90
19870;DHT22;10097;50.862;4.696;2023-12-20T12:03:36;8.40;99.90
19870;DHT22;10097;50.862;4.696;2023-12-20T12:06:02;8.30;99.90
19870;DHT22;10097;50.862;4.696;2023-12-20T12:08:29;8.30;99.90
19870;DHT22;10097;50.862;4.696;2023-12-20T12:10:55;8.30;99.90
19870;DHT22;10097;50.862;4.696;2023-12-20T12:13:21;8.30;99.90
19870;DHT22;10097;50.862;4.696;2023-12-20T12:15:48;8.30;99.90
19870;DHT22;10097;50.862;4.696;2023-12-20T12:18:16;8.30;99.90
19870;DHT22;10097;50.862;4.696;2023-12-20T12:20:42;8.40;99.90
19870;DHT22;10097;50.862;4.696;2023-12-20T12:23:10;8.30;99.90
19870;DHT22;10097;50.862;4.696;2023-12-20T12:25:36;8.40;99.90
19870;DHT22;10097;50.862;4.696;2023-12-20T12:28:02;8.50;99.90
19870;DHT22;10097;50.862;4.696;2023-12-20T12:30:28;8.50;99.90
19870;DHT22;10097;50.862;4.696;2023-12-20T12:33:01;8.60;99.90
19870;DHT22;10097;50.862;4.696;2023-12-20T12:35:27;8.60;99.90
19870;DHT22;10097;50.862;4.696;2023-12-20T12:37:52;8.50;99.90
19870;DHT22;10097;50.862;4.696;2023-12-20T12:40:20;8.40;99.90
19870;DHT22;10097;50.862;4.696;2023-12-20T12:42:46;8.50;99.90
19870;DHT22;10097;50.862;4.696;2023-12-20T12:45:12;8.40;99.90
19870;DHT22;10097;50.862;4.696;2023-12-20T12:47:38;8.40;99.90
19870;DHT22;10097;50.862;4.696;2023-12-20T12:50:04;8.30;99.90
19870;DHT22;10097;50.862;4.696;2023-12-20T12:52:30;8.40;99.90
19870;DHT22;10097;50.862;4.696;2023-12-20T12:54:56;8.40;99.90
19870;DHT22;10097;50.862;4.696;2023-12-20T12:57:22;8.40;99.90
19870;DHT22;10097;50.862;4.696;2023-12-20T12:59:47;8.50;99.90
19870;DHT22;10097;50.862;4.696;2023-12-20T13:02:14;8.50;99.90
19870;DHT22;10097;50.862;4.696;2023-12-20T13:04:45;8.50;99.90
19870;DHT22;10097;50.862;4.696;2023-12-20T13:07:11;8.40;99.90
19870;DHT22;10097;50.862;4.696;2023-12-20T13:09:38;8.30;99.90
19870;DHT22;10097;50.862;4.696;2023-12-20T13:12:05;8.40;99.90
19870;DHT22;10097;50.862;4.696;2023-12-20T13:14:35;8.40;99.90
19870;DHT22;10097;50.862;4.696;2023-12-20T13:17:03;8.30;99.90
19870;DHT22;10097;50.862;4.696;2023-12-20T13:19:33;8.30;99.90
19870;DHT22;10097;50.862;4.696;2023-12-20T13:21:59;8.30;99.90
19870;DHT22;10097;50.862;4.696;2023-12-20T13:24:25;8.30;99.90
19870;DHT22;10097;50.862;4.696;2023-12-20T13:26:51;8.40;99.90
19870;DHT22;10097;50.862;4.696;2023-12-20T13:29:16;8.40;99.90
19870;DHT22;10097;50.862;4.696;2023-12-20T13:31:42;8.50;99.90
19870;DHT22;10097;50.862;4.696;2023-12-20T13:34:08;8.50;99.90
19870;DHT22;10097;50.862;4.696;2023-12-20T13:36:33;8.60;99.90
19870;DHT22;10097;50.862;4.696;2023-12-20T13:38:59;8.50;99.90
19870;DHT22;10097;50.862;4.696;2023-12-20T13:41:26;8.60;99.90
19870;DHT22;10097;50.862;4.696;2023-12-20T13:43:52;8.60;99.90
19870;DHT22;10097;50.862;4.696;2023-12-20T13:46:18;8.60;99.90
19870;DHT22;10097;50.862;4.696;2023-12-20T13:48:44;8.70;99.90
19870;DHT22;10097;50.862;4.696;2023-12-20T13:51:10;8.70;99.90
19870;DHT22;10097;50.862;4.696;2023-12-20T13:53:36;8.60;99.90
19870;DHT22;10097;50.862;4.696;2023-12-20T13:56:01;8.70;99.90
19870;DHT22;10097;50.862;4.696;2023-12-20T13:58:27;8.70;99.90
19870;DHT22;10097;50.862;4.696;2023-12-20T14:00:53;8.70;99.90
19870;DHT22;10097;50.862;4.696;2023-12-20T14:03:18;8.70;99.90
19870;DHT22;10097;50.862;4.696;2023-12-20T14:05:45;8.70;99.90
19870;DHT22;10097;50.862;4.696;2023-12-20T14:08:11;8.80;99.90
19870;DHT22;10097;50.862;4.696;2023-12-20T14:10:40;8.80;99.90
19870;DHT22;10097;50.862;4.696;2023-12-20T14:13:05;8.80;99.90
19870;DHT22;10097;50.862;4.696;2023-12-20T14:15:31;8.80;99.90
19870;DHT22;10097;50.862;4.696;2023-12-20T14:18:04;8.80;99.90
19870;DHT22;10097;50.862;4.696;2023-12-20T14:20:33;8.80;99.90
19870;DHT22;10097;50.862;4.696;2023-12-20T14:23:02;8.90;99.90
19870;DHT22;10097;50.862;4.696;2023-12-20T14:25:30;8.80;99.90
19870;DHT22;10097;50.862;4.696;2023-12-20T14:27:59;8.90;99.90
19870;DHT22;10097;50.862;4.696;2023-12-20T14:30:25;8.90;99.90
19870;DHT22;10097;50.862;4.696;2023-12-20T14:32:51;9.00;99.90
19870;DHT22;10097;50.862;4.696;2023-12-20T14:35:16;9.10;99.90
19870;DHT22;10097;50.862;4.696;2023-12-20T14:37:42;9.30;99.90
19870;DHT22;10097;50.862;4.696;2023-12-20T14:40:15;9.30;99.90
19870;DHT22;10097;50.862;4.696;2023-12-20T14:42:42;9.20;99.90
19870;DHT22;10097;50.862;4.696;2023-12-20T14:45:09;9.30;99.90
19870;DHT22;10097;50.862;4.696;2023-12-20T14:47:38;9.40;99.90
19870;DHT22;10097;50.862;4.696;2023-12-20T14:50:04;9.40;99.90
19870;DHT22;10097;50.862;4.696;2023-12-20T14:52:31;9.30;99.90
19870;DHT22;10097;50.862;4.696;2023-12-20T14:54:57;9.20;99.90
19870;DHT22;10097;50.862;4.696;2023-12-20T14:57:23;9.20;99.90
19870;DHT22;10097;50.862;4.696;2023-12-20T14:59:49;9.30;99.90
19870;DHT22;10097;50.862;4.696;2023-12-20T15:02:14;9.30;99.90
19870;DHT22;10097;50.862;4.696;2023-12-20T15:04:43;9.20;99.90
19870;DHT22;10097;50.862;4.696;2023-12-20T15:07:09;9.30;99.90
19870;DHT22;10097;50.862;4.696;2023-12-20T15:09:35;9.30;99.90
19870;DHT22;10097;50.862;4.696;2023-12-20T15:12:00;9.20;99.90
19870;DHT22;10097;50.862;4.696;2023-12-20T15:14:26;9.30;99.90
19870;DHT22;10097;50.862;4.696;2023-12-20T15:16:53;9.30;99.90
19870;DHT22;10097;50.862;4.696;2023-12-20T15:19:21;9.30;99.90
19870;DHT22;10097;50.862;4.696;2023-12-20T15:21:46;9.20;99.90
19870;DHT22;10097;50.862;4.696;2023-12-20T15:24:15;9.20;99.90
19870;DHT22;10097;50.862;4.696;2023-12-20T15:26:43;9.30;99.90
19870;DHT22;10097;50.862;4.696;2023-12-20T15:29:13;9.30;99.90
19870;DHT22;10097;50.862;4.696;2023-12-20T15:31:44;9.30;99.90
19870;DHT22;10097;50.862;4.696;2023-12-20T15:34:10;9.30;99.90
19870;DHT22;10097;50.862;4.696;2023-12-20T15:36:37;9.40;99.90
19870;DHT22;10097;50.862;4.696;2023-12-20T15:39:04;9.40;99.90
19870;DHT22;10097;50.862;4.696;2023-12-20T15:41:30;9.50;99.90
19870;DHT22;10097;50.862;4.696;2023-12-20T15:43:58;9.50;99.90
19870;DHT22;10097;50.862;4.696;2023-12-20T15:46:24;9.60;99.90
19870;DHT22;10097;50.862;4.696;2023-12-20T15:48:50;9.60;99.90
19870;DHT22;10097;50.862;4.696;2023-12-20T15:51:19;9.60;99.90
19870;DHT22;10097;50.862;4.696;2023-12-20T15:53:45;9.60;99.90
19870;DHT22;10097;50.862;4.696;2023-12-20T15:56:11;9.60;99.90